Orbital elements of COSMOS 2490
| Launched | 24 December 2013 |
| Flight ended | – |
| Launch site | Plesetsk Missile and Space Complex, Russia |
| Owner | Commonwealth of Independent States (former USSR) |
| NORAD ID | 39485 |
| Alternative names |
RODNIK-S 9 |
| Date fetched |
Epoch osculation |
Inc. [°] |
Ecc. | RA asc node [hr] |
Arg Peri. [°] |
Mean anom [°] |
Mean motion [rev/day] |
Abs. mag |
| Date fetched |
Epoch osculation |
Inc. [°] |
Ecc. | RA asc node [hr] |
Arg Peri. [°] |
Mean anom [°] |
Mean motion [rev/day] |
Abs. mag |
| 2026 May 03 17:57 | 2026 May 03 13:12:09 | 82.4858 | 0.00212 | 13.0636 | 205.2810 | 154.7236 | 12.42876 | – |
| 2026 May 02 17:57 | 2026 May 02 12:05:14 | 82.4860 | 0.00211 | 13.1070 | 207.5757 | 154.7236 | 12.42876 | – |
| 2026 May 01 17:56 | 2026 May 01 10:58:19 | 82.4862 | 0.00211 | 13.1505 | 209.9468 | 154.7236 | 12.42876 | – |
| 2026 Apr 30 17:56 | 2026 Apr 30 11:47:18 | 82.4861 | 0.00210 | 13.1906 | 212.0427 | 154.7236 | 12.42876 | – |
| 2026 Apr 29 17:57 | 2026 Apr 29 12:36:18 | 82.4860 | 0.00210 | 13.2307 | 214.2201 | 154.7236 | 12.42876 | – |
| 2026 Apr 28 17:56 | 2026 Apr 28 11:29:23 | 82.4858 | 0.00209 | 13.2742 | 216.5488 | 154.7236 | 12.42876 | – |
| 2026 Apr 27 17:58 | 2026 Apr 27 12:18:23 | 82.4855 | 0.00209 | 13.3143 | 218.6485 | 154.7236 | 12.42876 | – |
| 2026 Apr 26 17:58 | 2026 Apr 26 13:07:23 | 82.4853 | 0.00209 | 13.3544 | 220.8219 | 154.7236 | 12.42876 | – |
| 2026 Apr 25 17:58 | 2026 Apr 25 12:00:27 | 82.4852 | 0.00208 | 13.3978 | 223.2184 | 154.7236 | 12.42876 | – |
| 2026 Apr 24 17:59 | 2026 Apr 24 10:53:32 | 82.4852 | 0.00208 | 13.4413 | 225.5847 | 154.7236 | 12.42876 | – |
| 2026 Apr 23 17:57 | 2026 Apr 23 05:54:47 | 82.4855 | 0.00208 | 13.4914 | 228.2558 | 154.7236 | 12.42876 | – |
| 2026 Apr 22 17:57 | 2026 Apr 22 06:43:47 | 82.4858 | 0.00207 | 13.5315 | 230.4735 | 154.7236 | 12.42876 | – |
| 2026 Apr 21 17:57 | 2026 Apr 21 13:20:32 | 82.4861 | 0.00207 | 13.5616 | 232.1087 | 154.7236 | 12.42876 | – |
| 2026 Apr 20 17:57 | 2026 Apr 20 12:13:36 | 82.4864 | 0.00207 | 13.6051 | 234.4774 | 154.7236 | 12.42876 | – |
| 2026 Apr 19 17:58 | 2026 Apr 19 13:02:36 | 82.4865 | 0.00206 | 13.6452 | 236.6648 | 154.7236 | 12.42876 | – |
| 2026 Apr 18 17:56 | 2026 Apr 18 06:07:56 | 82.4863 | 0.00206 | 13.6987 | 239.6089 | 154.7236 | 12.42876 | – |
| 2026 Apr 16 17:57 | 2026 Apr 16 05:50:00 | 82.4858 | 0.00205 | 13.7822 | 244.1790 | 154.7236 | 12.42876 | – |
| 2026 Apr 14 17:57 | 2026 Apr 14 13:15:45 | 82.4852 | 0.00205 | 13.8525 | 248.0189 | 154.7236 | 12.42876 | – |
| 2026 Apr 13 17:57 | 2026 Apr 13 06:21:05 | 82.4849 | 0.00204 | 13.9059 | 250.9471 | 154.7236 | 12.42876 | – |
| 2026 Apr 12 17:57 | 2026 Apr 12 12:57:50 | 82.4848 | 0.00204 | 13.9360 | 252.5831 | 154.7236 | 12.42876 | – |
| 2026 Apr 11 17:57 | 2026 Apr 11 13:46:50 | 82.4847 | 0.00204 | 13.9761 | 254.7477 | 154.7236 | 12.42876 | – |
| 2026 Apr 10 17:58 | 2026 Apr 10 06:52:09 | 82.4848 | 0.00204 | 14.0296 | 257.7628 | 154.7236 | 12.42876 | – |
| 2026 Apr 09 18:01 | 2026 Apr 09 07:41:09 | 82.4849 | 0.00204 | 14.0697 | 259.9601 | 154.7236 | 12.42876 | – |
| 2026 Apr 08 17:57 | 2026 Apr 08 06:34:14 | 82.4851 | 0.00204 | 14.1132 | 262.3435 | 154.7236 | 12.42876 | – |
| 2026 Apr 07 17:57 | 2026 Apr 07 07:23:14 | 82.4852 | 0.00204 | 14.1533 | 264.5403 | 154.7236 | 12.42876 | – |
| 2026 Apr 06 17:57 | 2026 Apr 06 06:16:19 | 82.4852 | 0.00203 | 14.1968 | 266.9479 | 154.7236 | 12.42876 | – |